Time;durP1;ratioP1;P1;durP2;ratioP2;P2;SDS_P1;SDS_P2;PMS_P1;PMS_P2;Temp;Humidity;BMP_temperature;BMP_pressure;BME280_temperature;BME280_humidity;BME280_pressure;Samples;Min_cycle;Max_cycle;Signal;HPM_P1;HPM_P2
2022/12/01 00:01:12;;;;;;;73.13;25.77;;;5.70;99.90;;;;;;4978135;28;20037;-78
2022/12/01 00:03:38;;;;;;;63.15;26.95;;;5.80;99.90;;;;;;4978095;28;20106;-78
2022/12/01 00:06:06;;;;;;;66.57;25.52;;;5.80;99.90;;;;;;4978331;28;20351;-78
2022/12/01 00:08:32;;;;;;;69.03;28.90;;;5.70;99.90;;;;;;4978155;28;20027;-78
2022/12/01 00:11:11;;;;;;;66.30;26.90;;;5.70;99.90;;;;;;4982258;28;20026;-78
2022/12/01 00:13:37;;;;;;;65.88;26.85;;;5.70;99.90;;;;;;4997567;28;20088;-78
2022/12/01 00:16:13;;;;;;;60.25;25.38;;;5.70;99.90;;;;;;4978595;28;20027;-78
2022/12/01 00:18:39;;;;;;;63.67;26.05;;;5.70;99.90;;;;;;4978185;28;20034;-78
2022/12/01 00:21:05;;;;;;;65.60;25.33;;;5.70;99.90;;;;;;4978198;28;20106;-78
2022/12/01 00:23:31;;;;;;;67.68;26.27;;;5.70;99.90;;;;;;4976587;28;20054;-78
2022/12/01 00:26:04;;;;;;;67.32;27.77;;;5.70;99.90;;;;;;4978022;28;20023;-78
2022/12/01 00:28:29;;;;;;;69.82;27.33;;;5.60;99.90;;;;;;4977664;28;20031;-78
2022/12/01 00:30:55;;;;;;;69.88;27.52;;;5.70;99.90;;;;;;4977750;28;20034;-78
2022/12/01 00:33:20;;;;;;;72.68;27.48;;;5.70;99.90;;;;;;4977772;28;20019;-78
2022/12/01 00:35:46;;;;;;;72.30;26.48;;;5.70;99.90;;;;;;4977765;28;20027;-78
2022/12/01 00:38:12;;;;;;;62.95;25.30;;;5.70;99.90;;;;;;4977512;28;20081;-78
2022/12/01 00:40:38;;;;;;;67.55;25.98;;;5.70;99.90;;;;;;4977637;28;20382;-78
2022/12/01 00:43:03;;;;;;;68.13;26.10;;;5.70;99.90;;;;;;4977597;28;20474;-78
2022/12/01 00:45:29;;;;;;;71.43;27.48;;;5.70;99.90;;;;;;4992520;28;20042;-78
2022/12/01 00:47:54;;;;;;;71.78;26.60;;;5.80;99.90;;;;;;4996709;28;20031;-78
2022/12/01 00:50:20;;;;;;;66.22;26.85;;;5.70;99.90;;;;;;4988467;28;20089;-78
2022/12/01 00:52:45;;;;;;;71.40;25.77;;;5.70;99.90;;;;;;4959779;28;20077;-78
2022/12/01 00:55:11;;;;;;;72.00;27.08;;;5.70;99.90;;;;;;4977368;28;20054;-78
2022/12/01 00:57:37;;;;;;;67.75;26.88;;;5.70;99.90;;;;;;4977292;28;20422;-78
2022/12/01 01:00:04;;;;;;;74.38;26.27;;;5.70;99.90;;;;;;4977360;28;20102;-78
2022/12/01 01:02:30;;;;;;;70.85;27.55;;;5.70;99.90;;;;;;4992123;28;20028;-78
2022/12/01 01:04:56;;;;;;;75.00;27.90;;;5.70;99.90;;;;;;4996724;28;20031;-78
2022/12/01 01:07:21;;;;;;;65.28;24.73;;;5.70;99.90;;;;;;4983451;28;20034;-78
2022/12/01 01:09:47;;;;;;;69.03;27.35;;;5.70;99.90;;;;;;4977293;28;20425;-78
2022/12/01 01:12:13;;;;;;;78.82;28.10;;;5.70;99.90;;;;;;4976977;28;20358;-78
2022/12/01 01:14:39;;;;;;;68.25;26.17;;;5.70;99.90;;;;;;4977022;28;20023;-78
2022/12/01 01:17:04;;;;;;;63.90;24.88;;;5.70;99.90;;;;;;4977016;28;20011;-78
2022/12/01 01:19:30;;;;;;;61.42;26.67;;;5.70;99.90;;;;;;4976855;28;20023;-78
2022/12/01 01:21:55;;;;;;;61.17;24.00;;;5.70;99.90;;;;;;4976738;28;20366;-78
2022/12/01 01:24:21;;;;;;;57.05;22.92;;;5.60;99.90;;;;;;4977548;28;20027;-78
2022/12/01 01:26:47;;;;;;;56.53;23.27;;;5.60;99.90;;;;;;4996187;28;20364;-78
2022/12/01 01:29:12;;;;;;;59.60;23.13;;;5.50;99.90;;;;;;4996199;28;20026;-78
2022/12/01 01:31:38;;;;;;;55.67;22.15;;;5.50;99.90;;;;;;4996071;28;20035;-78
2022/12/01 01:34:03;;;;;;;58.38;22.25;;;5.50;99.90;;;;;;4995714;28;20385;-78
2022/12/01 01:36:29;;;;;;;56.67;23.90;;;5.50;99.90;;;;;;4996028;28;20076;-78
2022/12/01 01:38:55;;;;;;;58.38;22.90;;;5.40;99.90;;;;;;4996126;28;20061;-78
2022/12/01 01:41:21;;;;;;;60.20;22.95;;;5.40;99.90;;;;;;4976600;28;20466;-78
2022/12/01 01:43:52;;;;;;;54.22;22.02;;;5.30;99.90;;;;;;4976587;28;20027;-78
2022/12/01 01:46:21;;;;;;;54.35;20.98;;;5.20;99.90;;;;;;4987365;28;20068;-78
2022/12/01 01:48:55;;;;;;;49.10;20.67;;;5.10;99.90;;;;;;4995816;28;20545;-78
2022/12/01 01:51:25;;;;;;;50.92;21.25;;;5.00;99.90;;;;;;4995738;28;20057;-78
2022/12/01 01:53:54;;;;;;;51.22;21.92;;;4.90;99.90;;;;;;4995731;28;20022;-78
2022/12/01 01:56:21;;;;;;;56.95;21.15;;;4.80;99.90;;;;;;4995792;28;20045;-78
2022/12/01 01:58:46;;;;;;;51.75;21.65;;;4.80;99.90;;;;;;4995656;28;20465;-78
2022/12/01 02:01:12;;;;;;;55.42;22.17;;;4.70;99.90;;;;;;4995569;28;20049;-78
2022/12/01 02:03:40;;;;;;;52.03;21.73;;;4.60;99.90;;;;;;4995427;28;20026;-78
2022/12/01 02:06:07;;;;;;;49.05;20.98;;;4.50;99.90;;;;;;4995295;28;20037;-78
2022/12/01 02:08:35;;;;;;;53.17;21.00;;;4.40;99.90;;;;;;4995259;28;20026;-78
2022/12/01 02:11:47;;;;;;;53.05;21.73;;;4.30;99.90;;;;;;4995390;28;20470;-78
2022/12/01 02:14:31;;;;;;;50.90;22.30;;;4.20;99.90;;;;;;4979746;28;20381;-78
2022/12/01 02:17:17;;;;;;;55.10;23.85;;;4.10;99.90;;;;;;4995528;28;20420;-78
2022/12/01 02:20:22;;;;;;;59.13;24.02;;;4.00;99.90;;;;;;4964870;28;20121;-78
2022/12/01 02:23:09;;;;;;;55.03;22.00;;;3.90;99.90;;;;;;4975771;28;20025;-78
2022/12/01 02:25:48;;;;;;;56.80;22.20;;;3.90;99.90;;;;;;4975727;28;20091;-78
2022/12/01 02:28:19;;;;;;;57.75;22.55;;;3.80;99.90;;;;;;4975405;28;20086;-78
2022/12/01 02:30:53;;;;;;;61.80;23.40;;;3.80;99.90;;;;;;4975939;28;20539;-78
2022/12/01 02:33:33;;;;;;;61.10;23.85;;;3.80;99.90;;;;;;4975553;28;20019;-78
2022/12/01 02:36:17;;;;;;;58.20;23.17;;;3.90;99.90;;;;;;4975538;28;20030;-78
2022/12/01 02:38:57;;;;;;;62.72;24.20;;;3.90;99.90;;;;;;4975353;28;20034;-78
2022/12/01 02:41:25;;;;;;;68.13;23.85;;;3.90;99.90;;;;;;4975532;28;20026;-78
2022/12/01 02:44:09;;;;;;;67.60;24.42;;;3.90;99.90;;;;;;4975258;28;20465;-78
2022/12/01 02:46:48;;;;;;;62.67;23.95;;;4.00;99.90;;;;;;4993924;28;20027;-78
2022/12/01 02:49:20;;;;;;;66.97;23.05;;;4.00;99.90;;;;;;4994469;28;20038;-78
2022/12/01 02:51:49;;;;;;;57.22;21.38;;;4.10;99.90;;;;;;4994417;28;20101;-78
2022/12/01 02:54:16;;;;;;;69.25;22.88;;;4.10;99.90;;;;;;4994385;28;20030;-78
2022/12/01 02:56:45;;;;;;;61.78;22.17;;;4.10;99.90;;;;;;4994561;28;20027;-78
2022/12/01 02:59:13;;;;;;;65.22;22.95;;;4.20;99.90;;;;;;4994119;28;20110;-77
2022/12/01 03:01:59;;;;;;;66.60;22.60;;;4.20;99.90;;;;;;4975016;28;20073;-78
2022/12/01 03:04:47;;;;;;;58.75;23.00;;;4.20;99.90;;;;;;4957700;28;20089;-78
2022/12/01 03:07:28;;;;;;;62.58;23.45;;;4.30;99.90;;;;;;4974963;28;20042;-78
2022/12/01 03:09:57;;;;;;;55.70;21.70;;;4.30;99.90;;;;;;4975081;28;20047;-78
2022/12/01 03:12:47;;;;;;;64.03;23.00;;;4.40;99.90;;;;;;4974880;28;20022;-77
2022/12/01 03:15:24;;;;;;;65.18;23.60;;;4.40;99.90;;;;;;4974583;28;20027;-78
2022/12/01 03:17:56;;;;;;;65.47;23.20;;;4.40;99.90;;;;;;4974832;28;20062;-78
2022/12/01 03:20:38;;;;;;;67.97;22.95;;;4.40;99.90;;;;;;4974785;28;20101;-78
2022/12/01 03:23:26;;;;;;;67.90;24.27;;;4.50;99.90;;;;;;4994173;28;20537;-78
2022/12/01 03:25:54;;;;;;;62.38;22.27;;;;;;;;;;4994345;28;20022;-78
2022/12/01 03:28:27;;;;;;;68.43;23.23;;;4.50;99.90;;;;;;4994204;28;20030;-78
2022/12/01 03:30:57;;;;;;;77.53;25.20;;;4.50;99.90;;;;;;4994658;28;20172;-78
2022/12/01 03:33:35;;;;;;;66.78;23.20;;;4.50;99.90;;;;;;4994366;28;20037;-78
2022/12/01 03:36:06;;;;;;;70.32;23.88;;;4.60;99.90;;;;;;4994133;28;20081;-78
2022/12/01 03:38:35;;;;;;;63.45;22.65;;;4.50;99.90;;;;;;4994388;28;20350;-78
2022/12/01 03:41:06;;;;;;;69.03;22.95;;;4.60;99.90;;;;;;4993866;28;20097;-78
2022/12/01 03:43:35;;;;;;;62.78;21.85;;;4.60;99.90;;;;;;4994025;28;20109;-78
2022/12/01 03:46:17;;;;;;;61.92;23.63;;;4.60;99.90;;;;;;4974552;28;20027;-78
2022/12/01 03:48:44;;;;;;;59.55;22.65;;;4.70;99.90;;;;;;4983123;28;20046;-78
2022/12/01 03:51:24;;;;;;;68.50;22.27;;;4.60;99.90;;;;;;4993583;28;20046;-78
2022/12/01 03:54:11;;;;;;;65.97;22.42;;;4.60;99.90;;;;;;4993834;28;20059;-78
2022/12/01 03:56:46;;;;;;;64.65;23.40;;;4.60;99.90;;;;;;4976080;28;20047;-78
2022/12/01 03:59:14;;;;;;;70.03;23.55;;;4.70;99.90;;;;;;4981890;28;20034;-77
2022/12/01 04:01:40;;;;;;;67.07;23.38;;;4.70;99.90;;;;;;4997400;28;20026;-78
2022/12/01 04:04:11;;;;;;;57.67;21.33;;;4.70;99.90;;;;;;4997258;28;20045;-78
2022/12/01 04:06:39;;;;;;;61.70;21.85;;;4.70;99.90;;;;;;4997548;28;20427;-78
2022/12/01 04:09:04;;;;;;;68.53;24.05;;;4.70;99.90;;;;;;4995359;28;20374;-78
2022/12/01 04:14:15;;;;;;;66.22;21.60;;;4.80;99.90;;;;;;4980362;28;20128;-78
2022/12/01 04:16:41;;;;;;;73.75;24.55;;;4.80;99.90;;;;;;4997505;28;20469;-78
2022/12/01 04:19:07;;;;;;;68.90;22.85;;;4.80;99.90;;;;;;4997434;28;20034;-78
2022/12/01 04:21:33;;;;;;;71.05;22.38;;;4.80;99.90;;;;;;4997290;28;20045;-78
2022/12/01 04:24:01;;;;;;;63.45;23.05;;;4.80;99.90;;;;;;4997093;28;20408;-78
2022/12/01 04:26:32;;;;;;;59.20;21.98;;;4.80;99.90;;;;;;4979630;28;20113;-78
2022/12/01 04:29:04;;;;;;;68.47;23.17;;;4.80;99.90;;;;;;4997281;28;20073;-78
2022/12/01 04:31:30;;;;;;;70.28;24.55;;;4.80;99.90;;;;;;4997030;28;20029;-78
2022/12/01 04:33:56;;;;;;;72.60;24.33;;;4.90;99.90;;;;;;4996991;28;20089;-78
2022/12/01 04:36:23;;;;;;;76.00;24.80;;;4.90;99.90;;;;;;4985068;28;20074;-78
2022/12/01 04:38:49;;;;;;;73.57;24.65;;;4.90;99.90;;;;;;5014993;28;20025;-78
2022/12/01 04:41:15;;;;;;;80.15;25.88;;;4.90;99.90;;;;;;5016337;28;20368;-78
2022/12/01 04:43:40;;;;;;;76.72;25.27;;;4.90;99.90;;;;;;4997662;28;20026;-78
2022/12/01 04:46:06;;;;;;;85.03;27.83;;;5.00;99.90;;;;;;4996570;28;20033;-78
2022/12/01 04:48:36;;;;;;;88.18;27.23;;;5.00;99.90;;;;;;4996558;28;20023;-78
2022/12/01 04:51:04;;;;;;;79.63;26.60;;;5.00;99.90;;;;;;4996228;28;20050;-78
2022/12/01 04:53:30;;;;;;;85.80;26.73;;;5.10;99.90;;;;;;4989393;28;20035;-77
2022/12/01 04:55:55;;;;;;;78.38;26.88;;;5.10;99.90;;;;;;4976689;28;20101;-78
2022/12/01 04:58:21;;;;;;;89.90;26.20;;;5.10;99.90;;;;;;4977011;28;20166;-78
2022/12/01 05:00:47;;;;;;;84.03;26.80;;;5.10;99.90;;;;;;4976803;28;20054;-78
2022/12/01 05:03:12;;;;;;;85.88;26.73;;;5.10;99.90;;;;;;4976553;28;20061;-78
2022/12/01 05:05:38;;;;;;;87.05;27.48;;;5.10;99.90;;;;;;4976746;28;20027;-78
2022/12/01 05:08:04;;;;;;;87.43;27.60;;;5.20;99.90;;;;;;4976829;28;20495;-77
2022/12/01 05:10:29;;;;;;;93.38;28.85;;;5.20;99.90;;;;;;4974695;28;20026;-78
2022/12/01 05:12:56;;;;;;;82.38;26.02;;;5.10;99.90;;;;;;4976746;28;20101;-78
2022/12/01 05:15:22;;;;;;;84.78;27.55;;;5.10;99.90;;;;;;4976627;28;20088;-78
2022/12/01 05:17:48;;;;;;;87.03;28.83;;;5.20;99.90;;;;;;4976502;28;20102;-78
2022/12/01 05:23:06;;;;;;;88.25;28.42;;;5.20;99.90;;;;;;4976131;28;20490;-78
2022/12/01 05:25:32;;;;;;;92.93;29.23;;;5.20;99.90;;;;;;4979484;28;20109;-77
2022/12/01 05:27:58;;;;;;;109.18;32.85;;;5.20;99.90;;;;;;4994906;28;20366;-77
2022/12/01 05:30:23;;;;;;;103.82;32.20;;;5.20;99.90;;;;;;4987281;28;20099;-78
2022/12/01 05:32:49;;;;;;;99.47;31.80;;;5.20;99.90;;;;;;4994581;28;20061;-78
2022/12/01 05:35:15;;;;;;;100.68;30.70;;;5.30;99.90;;;;;;4994521;28;20029;-77
2022/12/01 05:37:40;;;;;;;98.25;29.02;;;5.30;99.90;;;;;;4995546;28;20027;-77
2022/12/01 05:40:07;;;;;;;89.72;27.98;;;5.20;99.90;;;;;;4995559;28;20034;-77
2022/12/01 05:42:32;;;;;;;92.88;29.15;;;5.20;99.90;;;;;;4995303;28;20084;-77
2022/12/01 05:44:58;;;;;;;85.00;26.08;;;5.30;99.90;;;;;;4981987;28;20054;-77
2022/12/01 05:47:24;;;;;;;91.40;28.35;;;5.30;99.90;;;;;;4958316;28;20556;-77
2022/12/01 05:49:49;;;;;;;100.00;30.95;;;5.30;99.90;;;;;;4975761;28;20054;-77
2022/12/01 05:52:15;;;;;;;104.07;31.50;;;5.30;99.90;;;;;;4975859;28;20358;-77
2022/12/01 05:54:40;;;;;;;87.43;29.60;;;5.30;99.90;;;;;;4975365;28;20054;-77
2022/12/01 05:57:06;;;;;;;103.03;32.63;;;5.20;99.90;;;;;;4976174;28;20535;-77
2022/12/01 05:59:31;;;;;;;92.43;29.35;;;5.20;99.90;;;;;;4976932;28;20115;-77
2022/12/01 06:01:57;;;;;;;93.57;29.15;;;5.20;99.90;;;;;;4979463;28;20018;-77
2022/12/01 06:04:23;;;;;;;89.53;27.50;;;5.20;99.90;;;;;;4977901;28;20363;-77
2022/12/01 06:06:49;;;;;;;90.97;27.33;;;5.20;99.90;;;;;;4975098;28;20023;-77
2022/12/01 06:09:15;;;;;;;77.85;25.23;;;5.10;99.90;;;;;;4974089;28;20019;-76
2022/12/01 06:11:40;;;;;;;75.88;24.85;;;5.10;99.90;;;;;;4975811;28;20034;-77
2022/12/01 06:14:06;;;;;;;78.97;27.30;;;5.00;99.90;;;;;;4973838;28;20027;-76
2022/12/01 06:16:31;;;;;;;74.80;25.15;;;4.90;99.90;;;;;;4974007;28;20027;-77
2022/12/01 06:18:57;;;;;;;74.60;25.52;;;4.70;99.90;;;;;;4982556;28;20362;-77
2022/12/01 06:21:23;;;;;;;73.13;25.45;;;4.60;99.90;;;;;;4969078;28;20026;-77
2022/12/01 06:23:49;;;;;;;70.78;23.80;;;4.40;99.90;;;;;;4973881;28;20065;-77
2022/12/01 06:26:14;;;;;;;63.58;22.35;;;4.30;99.90;;;;;;4976706;28;20019;-77
2022/12/01 06:28:40;;;;;;;60.88;22.85;;;4.20;99.90;;;;;;4976611;28;20366;-77
2022/12/01 06:31:05;;;;;;;69.70;22.25;;;4.00;99.90;;;;;;4978790;28;20046;-77
2022/12/01 06:33:31;;;;;;;65.47;22.48;;;3.90;99.90;;;;;;4985772;28;20029;-77
2022/12/01 06:36:02;;;;;;;60.03;23.15;;;3.80;99.90;;;;;;4993640;28;20089;-78
2022/12/01 06:38:33;;;;;;;60.38;23.17;;;3.70;99.90;;;;;;4981464;28;20117;-76
2022/12/01 06:40:59;;;;;;;69.50;24.30;;;3.60;99.90;;;;;;4994436;28;20015;-76
2022/12/01 06:43:24;;;;;;;70.57;24.30;;;3.60;99.90;;;;;;4985741;28;20026;-76
2022/12/01 06:45:50;;;;;;;68.95;24.95;;;3.50;99.90;;;;;;4991887;28;20569;-77
2022/12/01 06:48:16;;;;;;;74.32;24.60;;;3.50;99.90;;;;;;4991344;28;20026;-76
2022/12/01 06:50:41;;;;;;;74.43;24.35;;;3.30;99.90;;;;;;4993932;28;20053;-76
2022/12/01 06:53:07;;;;;;;71.20;24.08;;;3.30;99.90;;;;;;4982192;28;20053;-77
2022/12/01 06:55:33;;;;;;;68.55;24.67;;;3.20;99.90;;;;;;4986620;28;20064;-77
2022/12/01 06:57:59;;;;;;;64.55;22.42;;;3.10;99.90;;;;;;4983281;28;20023;-77
2022/12/01 07:00:25;;;;;;;60.05;22.23;;;2.90;99.90;;;;;;4980892;28;20026;-77
2022/12/01 07:02:50;;;;;;;67.32;23.63;;;2.90;99.90;;;;;;4985034;28;20034;-77
2022/12/01 07:05:16;;;;;;;65.65;23.45;;;2.90;99.90;;;;;;4978149;28;20469;-77
2022/12/01 07:07:42;;;;;;;62.33;22.48;;;2.80;99.90;;;;;;4956894;28;20027;-76
2022/12/01 07:10:09;;;;;;;66.38;23.58;;;2.70;99.90;;;;;;4986516;28;20378;-77
2022/12/01 07:12:35;;;;;;;64.55;22.50;;;2.70;99.90;;;;;;4974087;28;20027;-77
2022/12/01 07:15:01;;;;;;;63.03;23.27;;;2.60;99.90;;;;;;4974577;28;20038;-77
2022/12/01 07:17:27;;;;;;;65.70;23.05;;;2.60;99.90;;;;;;4974277;28;20019;-76
2022/12/01 07:19:52;;;;;;;76.40;24.35;;;2.60;99.90;;;;;;4990871;28;20018;-77
2022/12/01 07:22:18;;;;;;;84.50;23.73;;;2.50;99.90;;;;;;4994570;28;20039;-76
2022/12/01 07:24:44;;;;;;;70.72;23.80;;;2.50;99.90;;;;;;4983550;28;20045;-77
2022/12/01 07:27:09;;;;;;;69.70;24.35;;;2.40;99.90;;;;;;4980618;28;20358;-77
2022/12/01 07:29:35;;;;;;;75.45;23.83;;;2.40;99.90;;;;;;4984055;28;20030;-77
2022/12/01 07:32:00;;;;;;;63.90;23.23;;;2.30;99.90;;;;;;4979898;28;20030;-77
2022/12/01 07:34:26;;;;;;;69.85;22.40;;;2.30;99.90;;;;;;4981009;28;20035;-77
2022/12/01 07:36:52;;;;;;;80.95;24.02;;;2.30;99.90;;;;;;4994164;28;20014;-77
2022/12/01 07:39:17;;;;;;;81.82;24.17;;;2.30;99.90;;;;;;4996876;28;20050;-77
2022/12/01 07:41:43;;;;;;;80.60;26.33;;;2.40;99.90;;;;;;4996525;28;20080;-77
2022/12/01 07:44:09;;;;;;;84.07;24.52;;;2.50;99.90;;;;;;4983342;28;20362;-77
2022/12/01 07:46:36;;;;;;;86.35;25.52;;;2.70;99.90;;;;;;4978066;28;20031;-76
2022/12/01 07:49:05;;;;;;;88.20;25.98;;;2.90;99.90;;;;;;4979041;28;20504;-76
2022/12/01 07:51:31;;;;;;;92.07;26.40;;;3.10;99.90;;;;;;4997316;28;20082;-77
2022/12/01 07:54:02;;;;;;;86.85;25.17;;;3.30;99.90;;;;;;4996980;28;20058;-76
2022/12/01 07:56:27;;;;;;;98.10;25.75;;;3.40;99.90;;;;;;4999083;28;20022;-77
2022/12/01 07:58:53;;;;;;;94.30;26.35;;;3.40;99.90;;;;;;5016971;28;20014;-77
2022/12/01 08:01:21;;;;;;;95.25;26.27;;;3.50;99.90;;;;;;5016870;28;20021;-76
2022/12/01 08:03:48;;;;;;;93.88;26.38;;;3.60;99.90;;;;;;5001593;28;20025;-77
2022/12/01 08:06:15;;;;;;;93.28;26.73;;;3.80;99.90;;;;;;4997313;28;20026;-77
2022/12/01 08:08:41;;;;;;;93.68;26.02;;;3.90;99.90;;;;;;4997335;28;20030;-77
2022/12/01 08:11:13;;;;;;;101.88;25.23;;;4.10;99.90;;;;;;4989611;28;20362;-77
2022/12/01 08:13:40;;;;;;;100.65;26.88;;;4.10;99.90;;;;;;4997124;28;20033;-77
2022/12/01 08:16:08;;;;;;;97.25;26.75;;;4.30;99.90;;;;;;4997153;28;20041;-76
2022/12/01 08:18:38;;;;;;;94.75;25.95;;;4.40;99.90;;;;;;4996944;28;20031;-77
2022/12/01 08:21:05;;;;;;;94.18;25.60;;;4.50;99.90;;;;;;5007386;28;20033;-77
2022/12/01 08:23:31;;;;;;;91.93;25.33;;;4.50;99.90;;;;;;4998271;28;20047;-76
2022/12/01 08:26:04;;;;;;;99.88;27.10;;;4.60;99.90;;;;;;4984734;28;20081;-77
2022/12/01 08:28:30;;;;;;;94.57;29.45;;;4.60;99.90;;;;;;4977806;28;20018;-77
2022/12/01 08:30:56;;;;;;;103.65;30.75;;;4.60;99.90;;;;;;4977499;28;20022;-77
2022/12/01 08:33:22;;;;;;;122.50;36.28;;;4.50;99.90;;;;;;4995702;28;20080;-77
2022/12/01 08:35:47;;;;;;;123.18;36.25;;;4.60;99.90;;;;;;4997010;28;20105;-77
2022/12/01 08:38:14;;;;;;;120.70;36.10;;;4.60;99.90;;;;;;4996851;28;20110;-76
2022/12/01 08:40:40;;;;;;;110.63;37.03;;;4.70;99.90;;;;;;4996849;28;20023;-77
2022/12/01 08:43:06;;;;;;;108.47;32.45;;;4.70;99.90;;;;;;4996541;28;20033;-76
2022/12/01 08:45:32;;;;;;;108.63;34.35;;;4.60;99.90;;;;;;4995971;28;20101;-77
2022/12/01 08:47:58;;;;;;;90.65;30.65;;;4.70;99.90;;;;;;4980952;28;20027;-77
2022/12/01 08:50:25;;;;;;;78.13;27.90;;;4.60;99.90;;;;;;4977047;28;20098;-77
2022/12/01 08:52:51;;;;;;;74.22;25.65;;;4.60;99.90;;;;;;4977164;28;20405;-77
2022/12/01 08:55:17;;;;;;;74.32;26.60;;;4.60;99.90;;;;;;4959517;28;20458;-77
2022/12/01 08:57:43;;;;;;;74.55;26.52;;;4.60;99.90;;;;;;4983075;28;20015;-77
2022/12/01 09:00:09;;;;;;;73.95;26.35;;;4.60;99.90;;;;;;4996255;28;20085;-77
2022/12/01 09:02:35;;;;;;;83.78;26.30;;;4.60;99.90;;;;;;4996321;28;20034;-77
2022/12/01 09:05:00;;;;;;;78.22;26.38;;;4.60;99.90;;;;;;4996590;28;20027;-77
2022/12/01 09:07:26;;;;;;;69.22;26.13;;;4.60;99.90;;;;;;4996258;28;20105;-77
2022/12/01 09:09:51;;;;;;;79.35;27.40;;;4.60;99.90;;;;;;4996072;28;20101;-77
2022/12/01 09:12:17;;;;;;;77.88;26.85;;;4.60;99.90;;;;;;4996082;28;20076;-77
2022/12/01 09:14:48;;;;;;;78.63;28.08;;;4.70;99.90;;;;;;4996222;28;20069;-77
2022/12/01 09:17:15;;;;;;;80.18;26.73;;;4.60;99.90;;;;;;4996147;28;20026;-77
2022/12/01 09:19:41;;;;;;;72.45;26.48;;;4.70;99.90;;;;;;4976715;28;20051;-77
2022/12/01 09:22:07;;;;;;;65.80;23.85;;;4.70;99.90;;;;;;4976496;28;20031;-77
2022/12/01 09:24:32;;;;;;;76.18;25.27;;;4.70;99.90;;;;;;4988446;28;20088;-77
2022/12/01 09:26:59;;;;;;;66.35;22.90;;;4.80;99.90;;;;;;4996034;28;20118;-77
2022/12/01 09:29:25;;;;;;;69.45;22.63;;;4.80;99.90;;;;;;4995917;28;20026;-77
2022/12/01 09:31:55;;;;;;;65.00;22.70;;;4.80;99.90;;;;;;4996122;28;20022;-77
2022/12/01 09:34:20;;;;;;;62.53;23.63;;;4.90;99.90;;;;;;4996175;28;20105;-76
2022/12/01 09:36:47;;;;;;;63.17;22.67;;;4.90;99.90;;;;;;4996001;28;20401;-77
2022/12/01 09:39:17;;;;;;;62.75;22.70;;;5.10;99.90;;;;;;4995815;28;20022;-77
2022/12/01 09:41:55;;;;;;;68.50;23.23;;;5.20;99.90;;;;;;4995598;28;20161;-77
2022/12/01 09:44:33;;;;;;;70.65;22.70;;;5.40;99.90;;;;;;4995739;28;20049;-77
2022/12/01 09:47:09;;;;;;;62.65;21.17;;;5.60;99.90;;;;;;4995433;28;20018;-77
2022/12/01 09:49:55;;;;;;;59.33;20.30;;;5.90;99.90;;;;;;4995319;28;20105;-77
2022/12/01 09:52:24;;;;;;;61.67;19.80;;;6.10;99.90;;;;;;4995502;28;20385;-77
2022/12/01 09:54:50;;;;;;;49.20;17.15;;;6.20;99.90;;;;;;4994992;28;20465;-77
2022/12/01 09:57:36;;;;;;;39.08;15.23;;;6.30;99.90;;;;;;4977827;28;20026;-77
2022/12/01 10:00:18;;;;;;;40.00;15.30;;;6.30;99.90;;;;;;4995247;28;20023;-77
2022/12/01 10:02:49;;;;;;;33.17;13.63;;;6.40;99.90;;;;;;4990994;28;20027;-76
2022/12/01 10:05:18;;;;;;;33.70;13.10;;;6.50;99.90;;;;;;4983552;28;20070;-77
2022/12/01 10:07:58;;;;;;;29.73;12.67;;;6.60;99.90;;;;;;4975869;28;20114;-77
2022/12/01 10:10:36;;;;;;;26.50;12.38;;;6.70;99.90;;;;;;4960030;28;20485;-77
2022/12/01 10:13:07;;;;;;;31.77;11.63;;;6.90;99.90;;;;;;4994739;28;20041;-77
2022/12/01 10:16:01;;;;;;;33.17;13.48;;;7.30;93.70;;;;;;4994850;28;20124;-77
2022/12/01 10:19:12;;;;;;;26.42;10.18;;;7.80;91.00;;;;;;4994978;28;20031;-77
2022/12/01 10:21:56;;;;;;;21.88;9.55;;;7.90;56.10;;;;;;4983651;28;20133;-77
2022/12/01 10:24:43;;;;;;;27.02;10.95;;;8.10;42.60;;;;;;4994741;28;20389;-77
2022/12/01 10:27:21;;;;;;;19.63;9.10;;;8.20;44.10;;;;;;4994639;28;20022;-77
2022/12/01 10:29:57;;;;;;;19.65;9.20;;;8.10;36.20;;;;;;4994845;28;20045;-77
2022/12/01 10:32:59;;;;;;;22.02;10.65;;;7.80;35.30;;;;;;4994571;28;20019;-76
2022/12/01 10:35:35;;;;;;;17.73;8.93;;;7.60;32.30;;;;;;4939006;28;20452;-77
2022/12/01 10:38:05;;;;;;;19.00;9.45;;;7.30;37.80;;;;;;4988401;28;20423;-76
2022/12/01 10:40:34;;;;;;;21.10;9.88;;;7.10;39.50;;;;;;4978167;28;20448;-77
2022/12/01 10:43:00;;;;;;;22.52;9.77;;;7.00;46.90;;;;;;4983019;28;20028;-77
2022/12/01 10:45:39;;;;;;;21.05;9.65;;;6.90;42.60;;;;;;4983516;28;20673;-77
2022/12/01 10:48:20;;;;;;;22.25;10.07;;;6.90;45.70;;;;;;4989552;28;20397;-78
2022/12/01 10:50:58;;;;;;;20.73;9.93;;;6.80;50.50;;;;;;4968185;28;20465;-77
2022/12/01 10:53:35;;;;;;;19.88;9.95;;;6.80;57.20;;;;;;4994538;28;20046;-78
2022/12/01 10:56:05;;;;;;;17.40;8.43;;;6.90;55.70;;;;;;4984876;28;20037;-78
2022/12/01 10:58:39;;;;;;;;;;;6.80;51.10;;;;;;4978011;28;20500;-77
2022/12/01 11:01:05;;;;;;;20.83;9.52;;;6.80;43.50;;;;;;4965708;28;20000;-77
2022/12/01 11:03:33;;;;;;;20.75;9.55;;;6.80;45.80;;;;;;4978825;28;20058;-77
2022/12/01 11:06:02;;;;;;;19.77;9.45;;;6.90;42.90;;;;;;4980106;28;20080;-77
2022/12/01 11:08:44;;;;;;;21.50;8.90;;;6.90;36.00;;;;;;4983298;28;20065;-77
2022/12/01 11:11:32;;;;;;;18.60;8.20;;;6.90;35.20;;;;;;4977294;28;20037;-77
2022/12/01 11:14:01;;;;;;;16.80;7.30;;;6.80;40.70;;;;;;4980583;28;20101;-77
2022/12/01 11:16:35;;;;;;;18.33;8.55;;;6.90;37.70;;;;;;4967921;28;20022;-77
2022/12/01 11:19:33;;;;;;;22.58;10.48;;;6.90;33.00;;;;;;4978790;28;20026;-77
2022/12/01 11:22:11;;;;;;;17.02;7.47;;;6.90;23.50;;;;;;4964926;28;20047;-77
2022/12/01 11:24:55;;;;;;;21.02;8.52;;;6.90;32.20;;;;;;4975812;28;20061;-77
2022/12/01 11:27:24;;;;;;;17.80;7.82;;;6.90;32.10;;;;;;4974782;28;20031;-77
2022/12/01 11:30:05;;;;;;;17.88;7.85;;;6.90;33.30;;;;;;4976462;28;20393;-77
2022/12/01 11:32:38;;;;;;;16.88;8.10;;;6.90;35.70;;;;;;4982888;28;20034;-77
2022/12/01 11:35:16;;;;;;;16.90;8.02;;;7.00;33.20;;;;;;4988012;28;20480;-78
2022/12/01 11:37:55;;;;;;;14.90;6.88;;;7.10;29.80;;;;;;4977774;28;20053;-78
2022/12/01 11:40:29;;;;;;;16.92;7.40;;;7.10;33.30;;;;;;4980897;28;20030;-78
2022/12/01 11:42:58;;;;;;;16.40;7.50;;;7.30;30.10;;;;;;4977954;28;20029;-78
2022/12/01 11:45:33;;;;;;;17.13;8.18;;;7.50;25.50;;;;;;4976653;28;20041;-78
2022/12/01 11:48:25;;;;;;;13.95;6.60;;;7.70;22.50;;;;;;4974176;28;20023;-78
2022/12/01 11:51:07;;;;;;;15.18;7.00;;;7.80;20.50;;;;;;4979866;28;20437;-78
2022/12/01 11:53:41;;;;;;;18.33;7.45;;;7.90;20.40;;;;;;4976455;28;20045;-78
2022/12/01 11:56:22;;;;;;;14.30;6.55;;;;;;;;;;4979409;28;20035;-78
2022/12/01 11:58:49;;;;;;;13.15;6.90;;;;;;;;;;4983670;28;20026;-78
2022/12/01 12:01:35;;;;;;;14.70;7.25;;;;;;;;;;4982426;28;20394;-78
2022/12/01 12:04:20;;;;;;;11.40;5.72;;;;;;;;;;4984852;28;20035;-78
2022/12/01 12:06:51;;;;;;;14.75;7.10;;;;;;;;;;4981564;28;20085;-79
2022/12/01 12:09:23;;;;;;;10.68;5.90;;;;;;;;;;4980556;28;20034;-78
2022/12/01 12:12:01;;;;;;;11.80;5.93;;;;;;;;;;4990299;28;20030;-79
2022/12/01 12:14:36;;;;;;;13.40;6.65;;;;;;;;;;4983846;28;20034;-79
2022/12/01 12:17:17;;;;;;;14.38;7.10;;;;;;;;;;4988189;28;20037;-78
2022/12/01 12:19:49;;;;;;;13.10;6.05;;;;;;;;;;4988216;28;20428;-79
2022/12/01 12:22:41;;;;;;;14.20;6.63;;;;;;;;;;4988525;28;20033;-76
2022/12/01 12:25:07;;;;;;;12.30;6.57;;;;;;;;;;4981476;28;20043;-76
2022/12/01 12:27:43;;;;;;;11.43;5.93;;;;;;;;;;4990637;28;20087;-76
2022/12/01 12:30:09;;;;;;;13.90;7.28;;;;;;;;;;4983985;28;20039;-75
2022/12/01 12:32:38;;;;;;;15.38;7.45;;;;;;;;;;4986074;28;20041;-76
2022/12/01 12:35:04;;;;;;;14.38;7.18;;;;;;;;;;4988459;28;20389;-76
2022/12/01 12:37:39;;;;;;;13.52;7.10;;;;;;;;;;4978264;28;20076;-76
2022/12/01 12:40:05;;;;;;;13.80;6.97;;;;;;;;;;4979347;28;20467;-76
2022/12/01 12:42:36;;;;;;;12.98;6.90;;;;;;;;;;4983524;28;20057;-76
2022/12/01 12:45:37;;;;;;;15.50;7.45;;;;;;;;;;4981618;28;20587;-76
2022/12/01 12:48:22;;;;;;;12.98;6.97;;;;;;;;;;4914819;29;20125;-76
2022/12/01 12:50:53;;;;;;;12.98;6.30;;;;;;;;;;4981894;28;20042;-76
2022/12/01 12:53:21;;;;;;;12.48;5.68;;;;;;;;;;4969274;28;20121;-76
2022/12/01 12:55:58;;;;;;;13.82;6.40;;;;;;;;;;4989266;28;20050;-76
2022/12/01 12:58:51;;;;;;;13.40;6.75;;;;;;;;;;4984046;28;20038;-76
2022/12/01 13:01:20;;;;;;;13.88;7.10;;;;;;;;;;4988592;28;20042;-76
2022/12/01 13:03:52;;;;;;;15.57;7.03;;;;;;;;;;4992831;28;20069;-76
2022/12/01 13:06:24;;;;;;;11.93;7.10;;;;;;;;;;4984345;28;20065;-76
2022/12/01 13:08:57;;;;;;;12.40;6.57;;;;;;;;;;4980266;28;21016;-76
2022/12/01 13:11:26;;;;;;;11.85;7.00;;;;;;;;;;4985392;28;20034;-76